AFR648 LFPO-FMEE
Flight info
| Callsign | AFR648 |
|---|---|
| Flight time | N/A |
| Altitude | 31000 |
| Route | OKASI DCT OKEKO DCT MOU DCT MADIV DCT MOKIP DCT TUFTA/N0493F330 DCT KOGAS/N0497F350 DCT MEDAM DCT NITAM DCT MOGBO DCT ELB DCT MEDAL DCT TORLI DCT PNZ DCT MASOT DCT LEVDI DCT NIMAN DCT ARLOS UN4 SALUN N705 MMA L613 KIVIL N710 TAKRI P751 LXR M999 JDW G650 RASKA/N0495F360 UG650 KONET/N0494F370 DCT XADOX DCT DWA UN304 APKAK/N0492F390 UN304 GEPAR/N0492F340 UN304 DENLI/N0487F330 UN304 UVENA UVENA2S |
| Aircraft | B77W/H-SDE1E2E3FGHIJ2J3J4J5M1RWXY/LB1D1 |
Departure
| Time | N/A |
|---|---|
| Airport | Paris-Orly Airport (LFPO) |
Arrival
| Time | 2026-04-16 10:10 |
|---|---|
| Airport | Roland Garros Airport (FMEE) |
| Time | Latitude | Longitude | Altitude | Speed | Heading |
|---|---|---|---|---|---|
| 2026-04-16 09:20 | -15.72505 | 53.04743 | 34925 ft | 496 kts | 156° |
| 2026-04-16 09:20 | -15.75637 | 53.06192 | 34926 ft | 496 kts | 156° |
| 2026-04-16 09:21 | -15.81949 | 53.09115 | 34928 ft | 496 kts | 156° |
| 2026-04-16 09:21 | -15.88291 | 53.12053 | 34927 ft | 496 kts | 156° |
| 2026-04-16 09:22 | -15.94596 | 53.14975 | 34930 ft | 496 kts | 156° |
| 2026-04-16 09:22 | -16.01021 | 53.17955 | 34929 ft | 496 kts | 156° |
| 2026-04-16 09:23 | -16.06391 | 53.20448 | 34931 ft | 496 kts | 156° |
| 2026-04-16 09:23 | -16.12775 | 53.23413 | 34928 ft | 495 kts | 156° |
| 2026-04-16 09:24 | -16.19112 | 53.26359 | 34935 ft | 495 kts | 156° |
| 2026-04-16 09:24 | -16.25455 | 53.29310 | 34939 ft | 497 kts | 156° |
| 2026-04-16 09:25 | -16.31846 | 53.32286 | 34941 ft | 502 kts | 156° |
| 2026-04-16 09:25 | -16.38299 | 53.35292 | 34938 ft | 504 kts | 156° |
| 2026-04-16 09:26 | -16.44738 | 53.38291 | 34933 ft | 505 kts | 156° |
| 2026-04-16 09:26 | -16.51173 | 53.41285 | 34928 ft | 504 kts | 156° |
| 2026-04-16 09:27 | -16.57565 | 53.44264 | 34931 ft | 502 kts | 156° |
| 2026-04-16 09:27 | -16.63982 | 53.47257 | 34932 ft | 501 kts | 156° |
| 2026-04-16 09:28 | -16.70326 | 53.50219 | 34932 ft | 499 kts | 156° |
| 2026-04-16 09:28 | -16.76678 | 53.53186 | 34936 ft | 499 kts | 156° |
| 2026-04-16 09:29 | -16.83005 | 53.56144 | 34935 ft | 498 kts | 156° |
| 2026-04-16 09:29 | -16.89376 | 53.59125 | 34937 ft | 498 kts | 156° |
| 2026-04-16 09:30 | -16.95709 | 53.62090 | 34938 ft | 498 kts | 156° |
| 2026-04-16 09:30 | -17.02019 | 53.65046 | 34936 ft | 498 kts | 156° |
| 2026-04-16 09:31 | -17.08366 | 53.68023 | 34937 ft | 499 kts | 156° |
| 2026-04-16 09:31 | -17.14731 | 53.71010 | 34939 ft | 500 kts | 156° |
| 2026-04-16 09:32 | -17.21142 | 53.74020 | 34941 ft | 500 kts | 156° |
| 2026-04-16 09:32 | -17.27502 | 53.77009 | 34940 ft | 500 kts | 156° |
| 2026-04-16 09:33 | -17.33854 | 53.79997 | 34940 ft | 501 kts | 156° |
| 2026-04-16 09:33 | -17.39309 | 53.82564 | 34939 ft | 501 kts | 156° |
| 2026-04-16 09:34 | -17.45957 | 53.85696 | 34940 ft | 500 kts | 156° |
| 2026-04-16 09:34 | -17.52377 | 53.88722 | 34938 ft | 500 kts | 156° |
| 2026-04-16 09:35 | -17.58747 | 53.91727 | 34942 ft | 500 kts | 156° |
| 2026-04-16 09:35 | -17.65402 | 53.94869 | 34943 ft | 499 kts | 156° |
| 2026-04-16 09:36 | -17.70940 | 53.97486 | 34938 ft | 499 kts | 156° |
| 2026-04-16 09:36 | -17.77512 | 54.00593 | 34942 ft | 499 kts | 156° |
| 2026-04-16 09:37 | -17.84489 | 54.03895 | 34942 ft | 499 kts | 156° |
| 2026-04-16 09:37 | -17.90896 | 54.06930 | 34944 ft | 498 kts | 156° |
| 2026-04-16 09:38 | -17.97270 | 54.09951 | 34949 ft | 498 kts | 156° |
| 2026-04-16 09:38 | -18.02513 | 54.12439 | 34945 ft | 498 kts | 156° |
| 2026-04-16 09:39 | -18.09019 | 54.15527 | 34942 ft | 498 kts | 157° |
| 2026-04-16 09:39 | -18.15503 | 54.18599 | 34942 ft | 498 kts | 157° |
| 2026-04-16 09:40 | -18.21829 | 54.21590 | 34945 ft | 498 kts | 157° |
| 2026-04-16 09:40 | -18.28153 | 54.24585 | 34945 ft | 498 kts | 157° |
| 2026-04-16 09:41 | -18.34470 | 54.27580 | 34945 ft | 498 kts | 157° |
| 2026-04-16 09:41 | -18.40782 | 54.30576 | 34943 ft | 498 kts | 157° |
| 2026-04-16 09:42 | -18.47112 | 54.33583 | 34946 ft | 498 kts | 157° |
| 2026-04-16 09:42 | -18.53438 | 54.36591 | 34944 ft | 498 kts | 157° |
| 2026-04-16 09:43 | -18.59792 | 54.39619 | 34942 ft | 498 kts | 156° |
| 2026-04-16 09:43 | -18.65886 | 54.43143 | 34952 ft | 499 kts | 151° |
| 2026-04-16 09:44 | -18.71878 | 54.46873 | 34948 ft | 500 kts | 151° |
| 2026-04-16 09:44 | -18.78071 | 54.50721 | 34947 ft | 500 kts | 151° |
| 2026-04-16 09:45 | -18.84090 | 54.54434 | 34942 ft | 501 kts | 151° |
| 2026-04-16 09:45 | -18.90114 | 54.58142 | 34945 ft | 501 kts | 151° |
| 2026-04-16 09:46 | -18.96140 | 54.61853 | 34948 ft | 501 kts | 151° |
| 2026-04-16 09:46 | -19.02142 | 54.65554 | 34947 ft | 502 kts | 151° |
| 2026-04-16 09:47 | -19.08242 | 54.69320 | 34946 ft | 502 kts | 151° |
| 2026-04-16 09:47 | -19.14282 | 54.73052 | 34940 ft | 502 kts | 151° |
| 2026-04-16 09:48 | -19.20303 | 54.76776 | 34944 ft | 503 kts | 151° |
| 2026-04-16 09:48 | -19.26345 | 54.80515 | 34947 ft | 503 kts | 151° |
| 2026-04-16 09:49 | -19.32392 | 54.84261 | 34948 ft | 503 kts | 151° |
| 2026-04-16 09:49 | -19.38459 | 54.88022 | 34573 ft | 510 kts | 151° |
| 2026-04-16 09:49 | -19.41541 | 54.89933 | 33705 ft | 518 kts | 151° |
| 2026-04-16 09:50 | -19.44657 | 54.91866 | 32774 ft | 518 kts | 151° |
| 2026-04-16 09:50 | -19.47773 | 54.93802 | 31858 ft | 518 kts | 151° |
| 2026-04-16 09:50 | -19.49823 | 54.95076 | 31241 ft | 519 kts | 151° |
| 2026-04-16 09:50 | -19.52957 | 54.97024 | 30419 ft | 518 kts | 151° |
| 2026-04-16 09:51 | -19.56040 | 54.98942 | 29774 ft | 512 kts | 151° |
| 2026-04-16 09:51 | -19.59098 | 55.00846 | 29062 ft | 507 kts | 151° |
| 2026-04-16 09:51 | -19.62126 | 55.02730 | 28412 ft | 502 kts | 151° |
| 2026-04-16 09:51 | -19.65120 | 55.04595 | 27803 ft | 496 kts | 151° |
| 2026-04-16 09:52 | -19.68085 | 55.06442 | 27205 ft | 492 kts | 151° |
| 2026-04-16 09:52 | -19.71017 | 55.08269 | 26626 ft | 487 kts | 151° |
| 2026-04-16 09:52 | -19.73910 | 55.10072 | 26044 ft | 483 kts | 151° |
| 2026-04-16 09:52 | -19.76827 | 55.11890 | 25447 ft | 479 kts | 151° |
| 2026-04-16 09:53 | -19.79697 | 55.13680 | 24874 ft | 476 kts | 151° |
| 2026-04-16 09:53 | -19.82534 | 55.15451 | 24297 ft | 474 kts | 151° |
| 2026-04-16 09:53 | -19.85377 | 55.17225 | 23715 ft | 471 kts | 151° |
| 2026-04-16 09:53 | -19.88193 | 55.18984 | 23076 ft | 469 kts | 151° |
| 2026-04-16 09:54 | -19.90994 | 55.20735 | 22455 ft | 465 kts | 151° |
| 2026-04-16 09:54 | -19.93766 | 55.22468 | 21887 ft | 461 kts | 151° |
| 2026-04-16 09:54 | -19.96524 | 55.24193 | 21314 ft | 457 kts | 151° |
| 2026-04-16 09:54 | -19.99205 | 55.25871 | 20816 ft | 452 kts | 151° |
| 2026-04-16 09:55 | -20.01946 | 55.27587 | 20331 ft | 447 kts | 151° |
| 2026-04-16 09:55 | -20.04618 | 55.29260 | 19817 ft | 444 kts | 151° |
| 2026-04-16 09:55 | -20.07265 | 55.30918 | 19287 ft | 441 kts | 151° |
| 2026-04-16 09:55 | -20.09899 | 55.32568 | 18733 ft | 440 kts | 151° |
| 2026-04-16 09:56 | -20.12546 | 55.34228 | 18171 ft | 439 kts | 151° |
| 2026-04-16 09:56 | -20.15160 | 55.35866 | 17571 ft | 437 kts | 151° |
| 2026-04-16 09:56 | -20.17771 | 55.37505 | 17004 ft | 434 kts | 151° |
| 2026-04-16 09:56 | -20.20371 | 55.39137 | 16352 ft | 434 kts | 151° |
| 2026-04-16 09:57 | -20.23006 | 55.40791 | 15769 ft | 432 kts | 150° |
| 2026-04-16 09:57 | -20.25578 | 55.42407 | 15230 ft | 429 kts | 150° |
| 2026-04-16 09:57 | -20.28150 | 55.44023 | 14730 ft | 426 kts | 150° |
| 2026-04-16 09:57 | -20.30765 | 55.45667 | 14195 ft | 423 kts | 150° |
| 2026-04-16 09:58 | -20.33287 | 55.47254 | 13705 ft | 420 kts | 150° |
| 2026-04-16 09:58 | -20.35761 | 55.48810 | 13267 ft | 414 kts | 150° |
| 2026-04-16 09:58 | -20.38225 | 55.50362 | 12894 ft | 406 kts | 150° |
| 2026-04-16 09:58 | -20.40622 | 55.51872 | 12286 ft | 404 kts | 150° |
| 2026-04-16 09:59 | -20.43076 | 55.53416 | 11623 ft | 405 kts | 150° |
| 2026-04-16 09:59 | -20.45478 | 55.54930 | 11261 ft | 397 kts | 150° |
| 2026-04-16 09:59 | -20.47816 | 55.56405 | 11165 ft | 379 kts | 150° |
| 2026-04-16 09:59 | -20.49999 | 55.57783 | 10989 ft | 352 kts | 150° |
| 2026-04-16 10:00 | -20.52031 | 55.59067 | 10830 ft | 328 kts | 150° |
| 2026-04-16 10:00 | -20.53935 | 55.60270 | 10647 ft | 307 kts | 151° |
| 2026-04-16 10:00 | -20.55730 | 55.61402 | 10356 ft | 293 kts | 151° |
| 2026-04-16 10:01 | -20.59057 | 55.63502 | 10096 ft | 276 kts | 151° |
| 2026-04-16 10:01 | -20.60759 | 55.64574 | 9981 ft | 286 kts | 151° |
| 2026-04-16 10:01 | -20.62508 | 55.65676 | 9623 ft | 294 kts | 151° |
| 2026-04-16 10:01 | -20.64259 | 55.66781 | 9290 ft | 295 kts | 151° |
| 2026-04-16 10:02 | -20.66033 | 55.67904 | 8945 ft | 294 kts | 151° |
| 2026-04-16 10:02 | -20.67788 | 55.69013 | 8601 ft | 293 kts | 151° |
| 2026-04-16 10:02 | -20.69563 | 55.70136 | 8260 ft | 292 kts | 150° |
| 2026-04-16 10:02 | -20.71275 | 55.71220 | 7929 ft | 292 kts | 150° |
| 2026-04-16 10:03 | -20.73033 | 55.72332 | 7599 ft | 291 kts | 150° |
| 2026-04-16 10:03 | -20.74774 | 55.73435 | 7265 ft | 291 kts | 150° |
| 2026-04-16 10:03 | -20.76540 | 55.74553 | 6935 ft | 291 kts | 150° |
| 2026-04-16 10:03 | -20.78256 | 55.75640 | 6610 ft | 291 kts | 150° |
| 2026-04-16 10:04 | -20.80062 | 55.76784 | 6270 ft | 291 kts | 150° |
| 2026-04-16 10:04 | -20.81821 | 55.77850 | 5971 ft | 284 kts | 158° |
| 2026-04-16 10:04 | -20.83728 | 55.78211 | 5589 ft | 280 kts | 185° |
| 2026-04-16 10:04 | -20.85634 | 55.77775 | 5279 ft | 276 kts | 198° |
| 2026-04-16 10:05 | -20.87500 | 55.77191 | 4974 ft | 275 kts | 197° |
| 2026-04-16 10:05 | -20.89327 | 55.76627 | 4745 ft | 271 kts | 197° |
| 2026-04-16 10:05 | -20.91117 | 55.76017 | 4578 ft | 258 kts | 208° |
| 2026-04-16 10:05 | -20.92450 | 55.74849 | 4306 ft | 251 kts | 237° |
| 2026-04-16 10:06 | -20.93106 | 55.73139 | 4029 ft | 244 kts | 261° |
| 2026-04-16 10:06 | -20.93140 | 55.71355 | 3729 ft | 238 kts | 281° |
| 2026-04-16 10:06 | -20.92734 | 55.69642 | 3471 ft | 233 kts | 287° |
| 2026-04-16 10:06 | -20.92281 | 55.68013 | 3173 ft | 221 kts | 287° |
| 2026-04-16 10:07 | -20.91848 | 55.66524 | 3022 ft | 197 kts | 286° |
| 2026-04-16 10:07 | -20.91507 | 55.65114 | 2515 ft | 198 kts | 285° |
| 2026-04-16 10:07 | -20.91177 | 55.63696 | 2086 ft | 191 kts | 285° |
| 2026-04-16 10:07 | -20.90895 | 55.62385 | 1838 ft | 167 kts | 285° |
| 2026-04-16 10:08 | -20.90678 | 55.61205 | 1597 ft | 156 kts | 281° |
| 2026-04-16 10:08 | -20.90498 | 55.60077 | 1424 ft | 154 kts | 282° |
| 2026-04-16 10:08 | -20.90298 | 55.58937 | 1273 ft | 155 kts | 285° |
| 2026-04-16 10:08 | -20.90080 | 55.57800 | 1049 ft | 157 kts | 283° |
| 2026-04-16 10:09 | -20.89853 | 55.56654 | 834 ft | 158 kts | 286° |
| 2026-04-16 10:09 | -20.89693 | 55.55881 | 707 ft | 157 kts | 283° |
| 2026-04-16 10:09 | -20.89466 | 55.54746 | 422 ft | 155 kts | 284° |
| 2026-04-16 10:09 | -20.89237 | 55.53625 | 201 ft | 153 kts | 284° |
| 2026-04-16 10:10 | -20.89027 | 55.52534 | 60 ft | 134 kts | 284° |
| 2026-04-16 10:10 | -20.88840 | 55.51673 | 58 ft | 94 kts | 282° |
| 2026-04-16 10:10 | -20.88742 | 55.51187 | 60 ft | 31 kts | 282° |
| 2026-04-16 10:10 | -20.88694 | 55.50968 | 60 ft | 30 kts | 283° |
| 2026-04-16 10:11 | -20.88651 | 55.50749 | 54 ft | 30 kts | 282° |
| 2026-04-16 10:11 | -20.88597 | 55.50557 | 51 ft | 26 kts | 300° |
| 2026-04-16 10:11 | -20.88598 | 55.50494 | 49 ft | 4 kts | 185° |
| 2026-04-16 10:11 | -20.88611 | 55.50514 | 52 ft | 3 kts | 106° |
| 2026-04-16 10:12 | -20.88622 | 55.50568 | 53 ft | 13 kts | 101° |
| 2026-04-16 10:12 | -20.88649 | 55.50706 | 59 ft | 23 kts | 103° |
| 2026-04-16 10:12 | -20.88691 | 55.50903 | 57 ft | 31 kts | 103° |
| 2026-04-16 10:12 | -20.88766 | 55.51107 | 63 ft | 25 kts | 137° |
| 2026-04-16 10:13 | -20.88917 | 55.51176 | 83 ft | 22 kts | 162° |
| 2026-04-16 10:13 | -20.88991 | 55.51239 | 85 ft | 11 kts | 127° |
| 2026-04-16 10:13 | -20.89019 | 55.51289 | 83 ft | 8 kts | 116° |
| 2026-04-16 10:13 | -20.89072 | 55.51328 | 84 ft | 12 kts | 155° |
| 2026-04-16 10:14 | -20.89094 | 55.51385 | 84 ft | 8 kts | 53° |
| 2026-04-16 10:14 | -20.89050 | 55.51370 | 85 ft | 8 kts | 299° |
| 2026-04-16 10:14 | -20.89024 | 55.51315 | 85 ft | 9 kts | 296° |
| 2026-04-16 10:14 | -20.88996 | 55.51253 | 83 ft | 10 kts | 296° |
| 2026-04-16 10:15 | -20.88967 | 55.51188 | 85 ft | 10 kts | 298° |
| 2026-04-16 10:15 | -20.88969 | 55.51133 | 85 ft | 3 kts | 215° |
| 2026-04-16 10:15 | -20.88990 | 55.51119 | 83 ft | 4 kts | 210° |
| 2026-04-16 10:15 | -20.89015 | 55.51105 | 84 ft | 4 kts | 208° |
| 2026-04-16 10:16 | -20.89030 | 55.51097 | 84 ft | 1 kts | 207° |
| 2026-04-16 10:16 | -20.89034 | 55.51095 | 85 ft | 0 kts | 207° |